DAL2745 KMSP-KTPA
Flight info
| Callsign | DAL2745 |
|---|---|
| Flight time | 2h 44m |
| Altitude | 35000 |
| Route | ZMBRO7 ODI J30 BRIBE/N0457F340 EDENS/N0457F350 ENL PLESS Q19 HITMN ACORI MAATY5 |
| Aircraft | A321/M-SDE3FGHIRWY/LB1 |
Departure
| Time | 2026-05-06 13:45 |
|---|---|
| Airport | Minneapolis–Saint Paul International Airport / Wold–Chamberlain Field (KMSP) |
Arrival
| Time | 2026-05-06 16:29 |
|---|---|
| Airport | Tampa International Airport (KTPA) |
| Time | Latitude | Longitude | Altitude | Speed | Heading |
|---|---|---|---|---|---|
| 2026-05-06 13:22 | 44.88313 | -93.20468 | 825 ft | 0 kts | 225° |
| 2026-05-06 13:38 | 44.88319 | -93.20459 | 825 ft | 3 kts | 225° |
| 2026-05-06 13:38 | 44.88332 | -93.20440 | 825 ft | 3 kts | 217° |
| 2026-05-06 13:38 | 44.88350 | -93.20427 | 823 ft | 3 kts | 187° |
| 2026-05-06 13:39 | 44.88369 | -93.20428 | 823 ft | 3 kts | 157° |
| 2026-05-06 13:39 | 44.88379 | -93.20434 | 824 ft | 0 kts | 141° |
| 2026-05-06 13:40 | 44.88373 | -93.20430 | 823 ft | 1 kts | 149° |
| 2026-05-06 13:41 | 44.88365 | -93.20403 | 825 ft | 4 kts | 116° |
| 2026-05-06 13:41 | 44.88350 | -93.20367 | 825 ft | 6 kts | 122° |
| 2026-05-06 13:41 | 44.88320 | -93.20304 | 825 ft | 7 kts | 124° |
| 2026-05-06 13:41 | 44.88294 | -93.20248 | 823 ft | 7 kts | 116° |
| 2026-05-06 13:42 | 44.88293 | -93.20177 | 822 ft | 7 kts | 69° |
| 2026-05-06 13:42 | 44.88299 | -93.20112 | 825 ft | 10 kts | 104° |
| 2026-05-06 13:42 | 44.88254 | -93.19993 | 825 ft | 14 kts | 122° |
| 2026-05-06 13:42 | 44.88206 | -93.19884 | 825 ft | 12 kts | 121° |
| 2026-05-06 13:43 | 44.88165 | -93.19788 | 823 ft | 11 kts | 121° |
| 2026-05-06 13:43 | 44.88130 | -93.19705 | 825 ft | 9 kts | 120° |
| 2026-05-06 13:43 | 44.88101 | -93.19637 | 825 ft | 7 kts | 120° |
| 2026-05-06 13:43 | 44.88072 | -93.19568 | 825 ft | 12 kts | 121° |
| 2026-05-06 13:44 | 44.88077 | -93.19457 | 825 ft | 11 kts | 41° |
| 2026-05-06 13:44 | 44.88144 | -93.19451 | 825 ft | 9 kts | 325° |
| 2026-05-06 13:44 | 44.88191 | -93.19550 | 824 ft | 24 kts | 302° |
| 2026-05-06 13:44 | 44.88414 | -93.20068 | 825 ft | 96 kts | 301° |
| 2026-05-06 13:45 | 44.88861 | -93.21117 | 830 ft | 149 kts | 300° |
| 2026-05-06 13:45 | 44.89921 | -93.23671 | 2187 ft | 153 kts | 313° |
| 2026-05-06 13:45 | 44.90898 | -93.24299 | 2631 ft | 167 kts | 356° |
| 2026-05-06 13:46 | 44.92040 | -93.23696 | 2848 ft | 194 kts | 38° |
| 2026-05-06 13:46 | 44.92741 | -93.21955 | 3065 ft | 220 kts | 76° |
| 2026-05-06 13:46 | 44.92598 | -93.19757 | 3342 ft | 244 kts | 111° |
| 2026-05-06 13:46 | 44.91563 | -93.17739 | 3685 ft | 267 kts | 140° |
| 2026-05-06 13:47 | 44.90039 | -93.16182 | 4383 ft | 274 kts | 146° |
| 2026-05-06 13:47 | 44.88459 | -93.14630 | 5185 ft | 279 kts | 146° |
| 2026-05-06 13:47 | 44.86861 | -93.13030 | 5990 ft | 283 kts | 146° |
| 2026-05-06 13:47 | 44.85248 | -93.11413 | 6807 ft | 286 kts | 146° |
| 2026-05-06 13:48 | 44.83610 | -93.09776 | 7585 ft | 290 kts | 146° |
| 2026-05-06 13:48 | 44.81976 | -93.08143 | 8345 ft | 294 kts | 146° |
| 2026-05-06 13:48 | 44.80297 | -93.06467 | 9103 ft | 298 kts | 146° |
| 2026-05-06 13:48 | 44.78594 | -93.04774 | 9869 ft | 301 kts | 147° |
| 2026-05-06 13:49 | 44.76858 | -93.03049 | 10339 ft | 315 kts | 147° |
| 2026-05-06 13:49 | 44.75001 | -93.01211 | 10490 ft | 338 kts | 147° |
| 2026-05-06 13:49 | 44.73012 | -92.99247 | 10667 ft | 358 kts | 147° |
| 2026-05-06 13:49 | 44.70947 | -92.97210 | 11199 ft | 366 kts | 147° |
| 2026-05-06 13:50 | 44.68854 | -92.95142 | 11859 ft | 370 kts | 147° |
| 2026-05-06 13:50 | 44.66769 | -92.93082 | 12547 ft | 373 kts | 147° |
| 2026-05-06 13:50 | 44.64638 | -92.90981 | 13252 ft | 376 kts | 147° |
| 2026-05-06 13:50 | 44.62483 | -92.88860 | 13933 ft | 380 kts | 147° |
| 2026-05-06 13:51 | 44.60310 | -92.86719 | 14527 ft | 383 kts | 148° |
| 2026-05-06 13:51 | 44.58119 | -92.84560 | 15125 ft | 387 kts | 148° |
| 2026-05-06 13:51 | 44.55910 | -92.82388 | 15697 ft | 390 kts | 148° |
| 2026-05-06 13:51 | 44.53675 | -92.80194 | 16268 ft | 394 kts | 148° |
| 2026-05-06 13:52 | 44.51424 | -92.77987 | 16833 ft | 397 kts | 149° |
| 2026-05-06 13:52 | 44.49151 | -92.75761 | 17402 ft | 400 kts | 148° |
| 2026-05-06 13:52 | 44.46975 | -92.73272 | 17945 ft | 408 kts | 139° |
| 2026-05-06 13:52 | 44.45124 | -92.70289 | 18441 ft | 416 kts | 128° |
| 2026-05-06 13:53 | 44.43580 | -92.66839 | 18886 ft | 421 kts | 123° |
| 2026-05-06 13:53 | 44.42081 | -92.63301 | 19348 ft | 424 kts | 123° |
| 2026-05-06 13:53 | 44.40564 | -92.59747 | 19808 ft | 427 kts | 124° |
| 2026-05-06 13:53 | 44.39034 | -92.56172 | 20264 ft | 430 kts | 124° |
| 2026-05-06 13:54 | 44.37489 | -92.52575 | 20714 ft | 433 kts | 124° |
| 2026-05-06 13:54 | 44.35931 | -92.48960 | 21162 ft | 436 kts | 124° |
| 2026-05-06 13:54 | 44.34357 | -92.45316 | 21610 ft | 439 kts | 124° |
| 2026-05-06 13:54 | 44.32779 | -92.41650 | 22052 ft | 442 kts | 124° |
| 2026-05-06 13:55 | 44.31213 | -92.38004 | 22489 ft | 445 kts | 124° |
| 2026-05-06 13:55 | 44.29614 | -92.34287 | 22905 ft | 448 kts | 124° |
| 2026-05-06 13:55 | 44.28000 | -92.30550 | 23333 ft | 451 kts | 124° |
| 2026-05-06 13:55 | 44.26372 | -92.26792 | 23736 ft | 454 kts | 124° |
| 2026-05-06 13:56 | 44.24731 | -92.23012 | 24067 ft | 457 kts | 125° |
| 2026-05-06 13:56 | 44.23079 | -92.19213 | 24390 ft | 460 kts | 125° |
| 2026-05-06 13:56 | 44.21410 | -92.15385 | 24706 ft | 463 kts | 126° |
| 2026-05-06 13:56 | 44.19755 | -92.11587 | 25001 ft | 466 kts | 126° |
| 2026-05-06 13:57 | 44.18068 | -92.07715 | 25310 ft | 470 kts | 126° |
| 2026-05-06 13:57 | 44.16367 | -92.03812 | 25604 ft | 473 kts | 126° |
| 2026-05-06 13:57 | 44.14655 | -91.99882 | 25887 ft | 476 kts | 127° |
| 2026-05-06 13:57 | 44.12929 | -91.95928 | 26196 ft | 480 kts | 127° |
| 2026-05-06 13:58 | 44.11189 | -91.91949 | 26474 ft | 483 kts | 127° |
| 2026-05-06 13:58 | 44.09435 | -91.87943 | 26744 ft | 486 kts | 127° |
| 2026-05-06 13:58 | 44.07669 | -91.83910 | 27010 ft | 490 kts | 128° |
| 2026-05-06 13:58 | 44.05888 | -91.79854 | 27274 ft | 493 kts | 128° |
| 2026-05-06 13:59 | 44.04113 | -91.75830 | 27528 ft | 496 kts | 129° |
| 2026-05-06 13:59 | 44.02300 | -91.71731 | 27766 ft | 500 kts | 129° |
| 2026-05-06 13:59 | 44.00473 | -91.67607 | 28020 ft | 503 kts | 129° |
| 2026-05-06 13:59 | 43.98634 | -91.63458 | 28260 ft | 506 kts | 129° |
| 2026-05-06 14:00 | 43.96785 | -91.59290 | 28489 ft | 509 kts | 130° |
| 2026-05-06 14:00 | 43.94923 | -91.55094 | 28715 ft | 512 kts | 130° |
| 2026-05-06 14:00 | 43.93052 | -91.50879 | 28952 ft | 515 kts | 130° |
| 2026-05-06 14:00 | 43.91039 | -91.46806 | 29187 ft | 508 kts | 138° |
| 2026-05-06 14:01 | 43.88744 | -91.43222 | 29428 ft | 500 kts | 145° |
| 2026-05-06 14:01 | 43.86297 | -91.39793 | 29746 ft | 500 kts | 146° |
| 2026-05-06 14:01 | 43.83852 | -91.36367 | 30116 ft | 500 kts | 146° |
| 2026-05-06 14:01 | 43.81407 | -91.32942 | 30406 ft | 500 kts | 146° |
| 2026-05-06 14:02 | 43.78965 | -91.29521 | 30683 ft | 499 kts | 146° |
| 2026-05-06 14:02 | 43.76523 | -91.26102 | 30964 ft | 499 kts | 146° |
| 2026-05-06 14:02 | 43.74081 | -91.22686 | 31247 ft | 499 kts | 146° |
| 2026-05-06 14:02 | 43.71637 | -91.19273 | 31522 ft | 499 kts | 146° |
| 2026-05-06 14:03 | 43.69192 | -91.15861 | 31808 ft | 499 kts | 146° |
| 2026-05-06 14:03 | 43.66781 | -91.12501 | 32081 ft | 499 kts | 146° |
| 2026-05-06 14:03 | 43.64334 | -91.09097 | 32370 ft | 499 kts | 145° |
| 2026-05-06 14:03 | 43.61883 | -91.05699 | 32645 ft | 499 kts | 145° |
| 2026-05-06 14:04 | 43.59430 | -91.02304 | 32917 ft | 500 kts | 145° |
| 2026-05-06 14:04 | 43.56976 | -90.98908 | 33195 ft | 500 kts | 145° |
| 2026-05-06 14:04 | 43.54523 | -90.95510 | 33471 ft | 500 kts | 145° |
| 2026-05-06 14:04 | 43.52069 | -90.92110 | 33737 ft | 500 kts | 145° |
| 2026-05-06 14:05 | 43.49644 | -90.88757 | 34004 ft | 501 kts | 145° |
| 2026-05-06 14:05 | 43.47185 | -90.85362 | 34232 ft | 501 kts | 145° |
| 2026-05-06 14:05 | 43.44725 | -90.81973 | 34450 ft | 500 kts | 144° |
| 2026-05-06 14:05 | 43.42265 | -90.78591 | 34674 ft | 500 kts | 144° |
| 2026-05-06 14:06 | 43.39806 | -90.75214 | 34894 ft | 500 kts | 144° |
| 2026-05-06 14:06 | 43.37339 | -90.71831 | 35032 ft | 500 kts | 144° |
| 2026-05-06 14:06 | 43.32434 | -90.65102 | 35069 ft | 497 kts | 144° |
| 2026-05-06 14:07 | 43.27573 | -90.58452 | 35065 ft | 496 kts | 144° |
| 2026-05-06 14:07 | 43.22682 | -90.51785 | 35065 ft | 496 kts | 144° |
| 2026-05-06 14:08 | 43.17783 | -90.45129 | 35057 ft | 496 kts | 144° |
| 2026-05-06 14:08 | 43.12880 | -90.38488 | 35039 ft | 496 kts | 144° |
| 2026-05-06 14:09 | 43.07978 | -90.31855 | 35031 ft | 496 kts | 144° |
| 2026-05-06 14:09 | 43.03107 | -90.25266 | 35024 ft | 496 kts | 144° |
| 2026-05-06 14:10 | 42.98196 | -90.18634 | 35016 ft | 496 kts | 144° |
| 2026-05-06 14:10 | 42.93277 | -90.12033 | 35009 ft | 496 kts | 144° |
| 2026-05-06 14:11 | 42.88350 | -90.05441 | 35001 ft | 496 kts | 144° |
| 2026-05-06 14:11 | 42.83241 | -89.99382 | 35000 ft | 479 kts | 158° |
| 2026-05-06 14:12 | 42.80372 | -89.97217 | 34994 ft | 465 kts | 167° |
| 2026-05-06 14:12 | 42.77380 | -89.95730 | 34990 ft | 451 kts | 176° |
| 2026-05-06 14:12 | 42.74353 | -89.94882 | 34995 ft | 439 kts | 184° |
| 2026-05-06 14:12 | 42.71348 | -89.94622 | 34990 ft | 427 kts | 192° |
| 2026-05-06 14:13 | 42.65458 | -89.94996 | 34988 ft | 424 kts | 194° |
| 2026-05-06 14:13 | 42.59599 | -89.95374 | 34990 ft | 425 kts | 194° |
| 2026-05-06 14:14 | 42.53692 | -89.95755 | 35000 ft | 425 kts | 194° |
| 2026-05-06 14:14 | 42.47785 | -89.96143 | 35003 ft | 425 kts | 194° |
| 2026-05-06 14:15 | 42.41873 | -89.96532 | 35011 ft | 425 kts | 194° |
| 2026-05-06 14:15 | 42.36002 | -89.96912 | 35020 ft | 425 kts | 194° |
| 2026-05-06 14:16 | 42.30089 | -89.97292 | 35032 ft | 425 kts | 194° |
| 2026-05-06 14:16 | 42.24183 | -89.97677 | 35039 ft | 425 kts | 194° |
| 2026-05-06 14:17 | 42.18276 | -89.98070 | 35047 ft | 425 kts | 194° |
| 2026-05-06 14:17 | 42.12412 | -89.98451 | 35053 ft | 425 kts | 194° |
| 2026-05-06 14:18 | 42.06513 | -89.98821 | 35059 ft | 424 kts | 194° |
| 2026-05-06 14:18 | 42.00621 | -89.99195 | 35062 ft | 424 kts | 195° |
| 2026-05-06 14:19 | 41.94740 | -89.99571 | 35063 ft | 423 kts | 195° |
| 2026-05-06 14:19 | 41.88903 | -89.99946 | 35063 ft | 422 kts | 195° |
| 2026-05-06 14:20 | 41.83042 | -90.00324 | 35062 ft | 421 kts | 196° |
| 2026-05-06 14:20 | 41.77189 | -90.00702 | 35067 ft | 421 kts | 196° |
| 2026-05-06 14:21 | 41.71346 | -90.01080 | 35062 ft | 420 kts | 196° |
| 2026-05-06 14:21 | 41.65552 | -90.01446 | 35061 ft | 419 kts | 197° |
| 2026-05-06 14:22 | 41.59729 | -90.01810 | 35060 ft | 418 kts | 197° |
| 2026-05-06 14:22 | 41.53924 | -90.02184 | 35061 ft | 417 kts | 197° |
| 2026-05-06 14:23 | 41.48132 | -90.02560 | 35064 ft | 416 kts | 197° |
| 2026-05-06 14:23 | 41.42348 | -90.02927 | 35060 ft | 416 kts | 198° |
| 2026-05-06 14:24 | 41.36612 | -90.03284 | 35061 ft | 415 kts | 198° |
| 2026-05-06 14:24 | 41.30857 | -90.03644 | 35063 ft | 414 kts | 198° |
| 2026-05-06 14:25 | 41.25114 | -90.04008 | 35062 ft | 413 kts | 198° |
| 2026-05-06 14:25 | 41.19379 | -90.04367 | 35064 ft | 412 kts | 199° |
| 2026-05-06 14:26 | 41.13700 | -90.04712 | 35067 ft | 414 kts | 197° |
| 2026-05-06 14:26 | 41.10761 | -90.04469 | 35067 ft | 434 kts | 187° |
| 2026-05-06 14:26 | 41.07752 | -90.03567 | 35066 ft | 447 kts | 182° |
| 2026-05-06 14:27 | 41.01730 | -90.01477 | 35061 ft | 448 kts | 182° |
| 2026-05-06 14:27 | 40.95705 | -89.99392 | 35057 ft | 447 kts | 182° |
| 2026-05-06 14:28 | 40.89728 | -89.97347 | 35056 ft | 447 kts | 182° |
| 2026-05-06 14:28 | 40.83713 | -89.95294 | 35052 ft | 446 kts | 182° |
| 2026-05-06 14:29 | 40.77701 | -89.93251 | 35051 ft | 446 kts | 183° |
| 2026-05-06 14:29 | 40.71729 | -89.91225 | 35042 ft | 446 kts | 183° |
| 2026-05-06 14:30 | 40.65717 | -89.89187 | 35042 ft | 446 kts | 183° |
| 2026-05-06 14:30 | 40.59709 | -89.87156 | 35047 ft | 446 kts | 183° |
| 2026-05-06 14:31 | 40.53703 | -89.85120 | 35045 ft | 445 kts | 183° |
| 2026-05-06 14:31 | 40.47745 | -89.83118 | 35046 ft | 445 kts | 184° |
| 2026-05-06 14:32 | 40.41748 | -89.81104 | 35050 ft | 445 kts | 184° |
| 2026-05-06 14:32 | 40.35755 | -89.79084 | 35051 ft | 444 kts | 184° |
| 2026-05-06 14:33 | 40.29767 | -89.77076 | 35054 ft | 444 kts | 184° |
| 2026-05-06 14:33 | 40.23822 | -89.75091 | 35050 ft | 444 kts | 184° |
| 2026-05-06 14:34 | 40.17846 | -89.73092 | 35049 ft | 444 kts | 184° |
| 2026-05-06 14:34 | 40.11864 | -89.71094 | 35041 ft | 443 kts | 184° |
| 2026-05-06 14:35 | 40.05891 | -89.69105 | 35033 ft | 443 kts | 184° |
| 2026-05-06 14:35 | 39.99960 | -89.67133 | 35032 ft | 442 kts | 184° |
| 2026-05-06 14:36 | 39.93996 | -89.65163 | 35025 ft | 442 kts | 184° |
| 2026-05-06 14:36 | 39.88035 | -89.63185 | 35029 ft | 442 kts | 184° |
| 2026-05-06 14:37 | 39.82081 | -89.61206 | 35028 ft | 442 kts | 184° |
| 2026-05-06 14:37 | 39.76166 | -89.59258 | 35027 ft | 441 kts | 184° |
| 2026-05-06 14:38 | 39.70220 | -89.57305 | 35027 ft | 441 kts | 184° |
| 2026-05-06 14:38 | 39.64274 | -89.55348 | 35036 ft | 440 kts | 184° |
| 2026-05-06 14:39 | 39.58335 | -89.53405 | 35038 ft | 440 kts | 184° |
| 2026-05-06 14:39 | 39.52400 | -89.51462 | 35034 ft | 440 kts | 184° |
| 2026-05-06 14:40 | 39.46511 | -89.49528 | 35032 ft | 440 kts | 184° |
| 2026-05-06 14:40 | 39.40585 | -89.47590 | 35030 ft | 439 kts | 184° |
| 2026-05-06 14:41 | 39.34663 | -89.45665 | 35030 ft | 439 kts | 184° |
| 2026-05-06 14:41 | 39.28745 | -89.43744 | 35026 ft | 438 kts | 184° |
| 2026-05-06 14:42 | 39.22875 | -89.41836 | 35025 ft | 438 kts | 184° |
| 2026-05-06 14:42 | 39.16974 | -89.39921 | 35024 ft | 437 kts | 184° |
| 2026-05-06 14:43 | 39.11076 | -89.38014 | 35024 ft | 437 kts | 184° |
| 2026-05-06 14:43 | 39.05177 | -89.36116 | 35024 ft | 436 kts | 184° |
| 2026-05-06 14:44 | 38.99327 | -89.34227 | 35024 ft | 437 kts | 184° |
| 2026-05-06 14:45 | 38.90492 | -89.31378 | 35026 ft | 436 kts | 184° |
| 2026-05-06 14:45 | 38.84608 | -89.29491 | 35029 ft | 435 kts | 184° |
| 2026-05-06 14:46 | 38.78729 | -89.27608 | 35030 ft | 435 kts | 184° |
| 2026-05-06 14:46 | 38.72898 | -89.25739 | 35033 ft | 435 kts | 184° |
| 2026-05-06 14:47 | 38.67028 | -89.23867 | 35046 ft | 434 kts | 184° |
| 2026-05-06 14:47 | 38.61166 | -89.22001 | 35049 ft | 434 kts | 184° |
| 2026-05-06 14:48 | 38.55312 | -89.20132 | 35060 ft | 433 kts | 184° |
| 2026-05-06 14:48 | 38.49501 | -89.18289 | 35049 ft | 433 kts | 184° |
| 2026-05-06 14:49 | 38.43656 | -89.16436 | 35049 ft | 433 kts | 184° |
| 2026-05-06 14:49 | 38.37802 | -89.14563 | 35047 ft | 434 kts | 184° |
| 2026-05-06 14:50 | 38.31952 | -89.12664 | 35046 ft | 434 kts | 183° |
| 2026-05-06 14:50 | 38.26145 | -89.10778 | 35037 ft | 433 kts | 183° |
| 2026-05-06 14:51 | 38.20304 | -89.08898 | 35032 ft | 432 kts | 184° |
| 2026-05-06 14:51 | 38.14473 | -89.07036 | 35030 ft | 432 kts | 184° |
| 2026-05-06 14:52 | 38.08643 | -89.05167 | 35035 ft | 432 kts | 183° |
| 2026-05-06 14:52 | 38.02850 | -89.03312 | 35028 ft | 432 kts | 183° |
| 2026-05-06 14:53 | 37.97017 | -89.01448 | 35043 ft | 433 kts | 183° |
| 2026-05-06 14:53 | 37.91177 | -88.99580 | 35045 ft | 433 kts | 183° |
| 2026-05-06 14:54 | 37.85329 | -88.97676 | 35053 ft | 441 kts | 179° |
| 2026-05-06 14:54 | 37.82417 | -88.96181 | 35053 ft | 465 kts | 168° |
| 2026-05-06 14:54 | 37.79613 | -88.93938 | 35051 ft | 490 kts | 157° |
| 2026-05-06 14:54 | 37.77100 | -88.90969 | 35051 ft | 513 kts | 145° |
| 2026-05-06 14:55 | 37.74723 | -88.87585 | 35044 ft | 515 kts | 145° |
| 2026-05-06 14:55 | 37.69951 | -88.80824 | 35038 ft | 516 kts | 146° |
| 2026-05-06 14:56 | 37.65152 | -88.74086 | 35033 ft | 516 kts | 146° |
| 2026-05-06 14:56 | 37.60336 | -88.67368 | 35029 ft | 516 kts | 146° |
| 2026-05-06 14:57 | 37.55551 | -88.60687 | 35023 ft | 517 kts | 145° |
| 2026-05-06 14:57 | 37.50731 | -88.53962 | 35011 ft | 517 kts | 145° |
| 2026-05-06 14:58 | 37.45901 | -88.47240 | 35001 ft | 518 kts | 145° |
| 2026-05-06 14:58 | 37.41064 | -88.40520 | 35003 ft | 518 kts | 145° |
| 2026-05-06 14:59 | 37.36256 | -88.33843 | 35012 ft | 519 kts | 145° |
| 2026-05-06 14:59 | 37.31399 | -88.27140 | 35021 ft | 519 kts | 145° |
| 2026-05-06 15:00 | 37.26536 | -88.20443 | 35012 ft | 519 kts | 145° |
| 2026-05-06 15:00 | 37.21677 | -88.13743 | 35008 ft | 519 kts | 145° |
| 2026-05-06 15:01 | 37.16843 | -88.07089 | 34996 ft | 520 kts | 145° |
| 2026-05-06 15:01 | 37.11964 | -88.00402 | 34989 ft | 520 kts | 145° |
| 2026-05-06 15:02 | 37.07074 | -87.93720 | 34974 ft | 521 kts | 145° |
| 2026-05-06 15:02 | 37.02173 | -87.87021 | 34960 ft | 522 kts | 145° |
| 2026-05-06 15:03 | 36.97264 | -87.80322 | 34963 ft | 522 kts | 145° |
| 2026-05-06 15:03 | 36.92375 | -87.73684 | 34968 ft | 523 kts | 145° |
| 2026-05-06 15:04 | 36.87448 | -87.66999 | 34983 ft | 523 kts | 145° |
| 2026-05-06 15:04 | 36.82517 | -87.60317 | 34988 ft | 523 kts | 145° |
| 2026-05-06 15:05 | 36.77614 | -87.53686 | 34983 ft | 523 kts | 145° |
| 2026-05-06 15:05 | 36.72677 | -87.47017 | 34968 ft | 523 kts | 145° |
| 2026-05-06 15:06 | 36.67733 | -87.40359 | 34983 ft | 523 kts | 145° |
| 2026-05-06 15:06 | 36.62784 | -87.33715 | 34991 ft | 523 kts | 145° |
| 2026-05-06 15:07 | 36.58675 | -87.28203 | 34995 ft | 522 kts | 145° |
| 2026-05-06 15:07 | 36.52926 | -87.20517 | 34996 ft | 522 kts | 145° |
| 2026-05-06 15:08 | 36.47987 | -87.13920 | 34995 ft | 521 kts | 145° |
| 2026-05-06 15:08 | 36.43046 | -87.07345 | 34985 ft | 520 kts | 145° |
| 2026-05-06 15:09 | 36.38943 | -87.01895 | 34988 ft | 519 kts | 144° |
| 2026-05-06 15:09 | 36.33224 | -86.94290 | 34972 ft | 518 kts | 144° |
| 2026-05-06 15:10 | 36.28310 | -86.87769 | 34964 ft | 517 kts | 144° |
| 2026-05-06 15:10 | 36.24223 | -86.82371 | 34962 ft | 516 kts | 144° |
| 2026-05-06 15:11 | 36.19310 | -86.75908 | 34968 ft | 514 kts | 145° |
| 2026-05-06 15:11 | 36.16707 | -86.72973 | 35017 ft | 499 kts | 155° |
| 2026-05-06 15:11 | 36.12944 | -86.69946 | 35015 ft | 477 kts | 166° |
| 2026-05-06 15:12 | 36.07912 | -86.67502 | 35006 ft | 452 kts | 179° |
| 2026-05-06 15:12 | 36.04881 | -86.66717 | 35003 ft | 440 kts | 185° |
| 2026-05-06 15:12 | 36.01904 | -86.66131 | 34999 ft | 440 kts | 185° |
| 2026-05-06 15:13 | 35.95853 | -86.64929 | 34994 ft | 440 kts | 185° |
| 2026-05-06 15:13 | 35.89800 | -86.63731 | 34988 ft | 441 kts | 184° |
| 2026-05-06 15:14 | 35.83739 | -86.62531 | 34987 ft | 441 kts | 184° |
| 2026-05-06 15:14 | 35.77710 | -86.61342 | 34961 ft | 442 kts | 184° |
| 2026-05-06 15:15 | 35.71633 | -86.60141 | 34944 ft | 443 kts | 184° |
| 2026-05-06 15:15 | 35.65553 | -86.58937 | 34932 ft | 442 kts | 184° |
| 2026-05-06 15:16 | 35.59476 | -86.57743 | 34927 ft | 443 kts | 183° |
| 2026-05-06 15:16 | 35.53422 | -86.56546 | 34934 ft | 444 kts | 183° |
| 2026-05-06 15:17 | 35.47317 | -86.55341 | 34929 ft | 445 kts | 183° |
| 2026-05-06 15:17 | 35.41193 | -86.54138 | 34932 ft | 446 kts | 183° |
| 2026-05-06 15:18 | 35.35049 | -86.52936 | 34939 ft | 448 kts | 183° |
| 2026-05-06 15:18 | 35.28884 | -86.51733 | 34941 ft | 449 kts | 183° |
| 2026-05-06 15:19 | 35.22745 | -86.50535 | 34943 ft | 451 kts | 183° |
| 2026-05-06 15:19 | 35.16541 | -86.49325 | 34947 ft | 452 kts | 182° |
| 2026-05-06 15:20 | 35.10322 | -86.48107 | 34950 ft | 453 kts | 182° |
| 2026-05-06 15:20 | 35.04083 | -86.46888 | 34955 ft | 455 kts | 182° |
| 2026-05-06 15:21 | 34.97866 | -86.45691 | 34958 ft | 456 kts | 182° |
| 2026-05-06 15:21 | 34.91596 | -86.44481 | 34958 ft | 457 kts | 182° |
| 2026-05-06 15:22 | 34.85312 | -86.43263 | 34963 ft | 458 kts | 182° |
| 2026-05-06 15:22 | 34.79027 | -86.42046 | 34967 ft | 457 kts | 183° |
| 2026-05-06 15:23 | 34.72781 | -86.40835 | 34973 ft | 458 kts | 182° |
| 2026-05-06 15:23 | 34.66484 | -86.39622 | 34968 ft | 458 kts | 183° |
| 2026-05-06 15:24 | 34.60192 | -86.38413 | 34967 ft | 458 kts | 183° |
| 2026-05-06 15:24 | 34.53898 | -86.37205 | 34971 ft | 458 kts | 183° |
| 2026-05-06 15:25 | 34.47599 | -86.36006 | 34981 ft | 458 kts | 183° |
| 2026-05-06 15:25 | 34.41342 | -86.34805 | 34988 ft | 458 kts | 183° |
| 2026-05-06 15:26 | 34.35043 | -86.33593 | 35004 ft | 458 kts | 183° |
| 2026-05-06 15:26 | 34.28741 | -86.32389 | 35008 ft | 458 kts | 183° |
| 2026-05-06 15:27 | 34.22437 | -86.31196 | 35010 ft | 459 kts | 182° |
| 2026-05-06 15:27 | 34.16175 | -86.30004 | 35010 ft | 459 kts | 182° |
| 2026-05-06 15:28 | 34.09866 | -86.28803 | 35003 ft | 459 kts | 182° |
| 2026-05-06 15:28 | 34.03552 | -86.27608 | 34996 ft | 459 kts | 182° |
| 2026-05-06 15:29 | 33.97233 | -86.26412 | 34990 ft | 460 kts | 182° |
| 2026-05-06 15:29 | 33.90954 | -86.25227 | 34988 ft | 460 kts | 182° |
| 2026-05-06 15:30 | 33.84614 | -86.24026 | 34997 ft | 461 kts | 182° |
| 2026-05-06 15:30 | 33.78274 | -86.22826 | 35007 ft | 462 kts | 182° |
| 2026-05-06 15:31 | 33.71915 | -86.21634 | 35030 ft | 462 kts | 182° |
| 2026-05-06 15:31 | 33.65600 | -86.20447 | 35035 ft | 463 kts | 182° |
| 2026-05-06 15:32 | 33.56039 | -86.18653 | 35038 ft | 464 kts | 182° |
| 2026-05-06 15:32 | 33.49651 | -86.17458 | 35040 ft | 465 kts | 182° |
| 2026-05-06 15:33 | 33.43256 | -86.16259 | 35028 ft | 466 kts | 182° |
| 2026-05-06 15:33 | 33.36895 | -86.15066 | 35019 ft | 466 kts | 182° |
| 2026-05-06 15:34 | 33.30475 | -86.13872 | 35034 ft | 467 kts | 182° |
| 2026-05-06 15:34 | 33.24044 | -86.12677 | 35043 ft | 468 kts | 182° |
| 2026-05-06 15:35 | 33.17600 | -86.11483 | 35048 ft | 469 kts | 182° |
| 2026-05-06 15:35 | 33.11146 | -86.10277 | 35046 ft | 470 kts | 182° |
| 2026-05-06 15:36 | 33.04731 | -86.09083 | 35045 ft | 470 kts | 182° |
| 2026-05-06 15:36 | 32.98261 | -86.07884 | 35041 ft | 471 kts | 182° |
| 2026-05-06 15:37 | 32.91792 | -86.06693 | 35039 ft | 470 kts | 182° |
| 2026-05-06 15:37 | 32.85327 | -86.05506 | 35041 ft | 470 kts | 182° |
| 2026-05-06 15:38 | 32.78907 | -86.04323 | 35039 ft | 470 kts | 182° |
| 2026-05-06 15:38 | 32.72449 | -86.03131 | 35044 ft | 470 kts | 182° |
| 2026-05-06 15:39 | 32.65990 | -86.01949 | 35052 ft | 470 kts | 182° |
| 2026-05-06 15:39 | 32.59527 | -86.00766 | 35050 ft | 470 kts | 182° |
| 2026-05-06 15:40 | 32.53069 | -85.99584 | 35052 ft | 469 kts | 181° |
| 2026-05-06 15:40 | 32.46656 | -85.98409 | 35055 ft | 469 kts | 181° |
| 2026-05-06 15:41 | 32.40204 | -85.97217 | 35048 ft | 469 kts | 181° |
| 2026-05-06 15:41 | 32.33755 | -85.96038 | 35044 ft | 469 kts | 181° |
| 2026-05-06 15:42 | 32.27308 | -85.94868 | 35042 ft | 469 kts | 181° |
| 2026-05-06 15:42 | 32.20907 | -85.93710 | 35040 ft | 469 kts | 181° |
| 2026-05-06 15:43 | 32.14457 | -85.92541 | 35049 ft | 469 kts | 181° |
| 2026-05-06 15:43 | 32.08004 | -85.91367 | 35063 ft | 469 kts | 181° |
| 2026-05-06 15:44 | 32.01547 | -85.90198 | 35082 ft | 470 kts | 181° |
| 2026-05-06 15:44 | 31.95129 | -85.89039 | 35089 ft | 470 kts | 181° |
| 2026-05-06 15:45 | 31.88668 | -85.87873 | 35098 ft | 470 kts | 181° |
| 2026-05-06 15:45 | 31.82205 | -85.86671 | 35093 ft | 474 kts | 178° |
| 2026-05-06 15:46 | 31.78998 | -85.85569 | 35088 ft | 487 kts | 167° |
| 2026-05-06 15:46 | 31.75909 | -85.83822 | 35078 ft | 499 kts | 157° |
| 2026-05-06 15:46 | 31.73048 | -85.81437 | 35071 ft | 511 kts | 146° |
| 2026-05-06 15:46 | 31.70417 | -85.78699 | 35066 ft | 512 kts | 145° |
| 2026-05-06 15:47 | 31.65071 | -85.73155 | 35052 ft | 513 kts | 146° |
| 2026-05-06 15:47 | 31.59701 | -85.67647 | 35060 ft | 513 kts | 146° |
| 2026-05-06 15:48 | 31.54333 | -85.62135 | 35067 ft | 513 kts | 145° |
| 2026-05-06 15:48 | 31.48968 | -85.56618 | 35071 ft | 513 kts | 145° |
| 2026-05-06 15:49 | 31.43639 | -85.51140 | 35111 ft | 513 kts | 145° |
| 2026-05-06 15:49 | 31.38269 | -85.45634 | 35124 ft | 513 kts | 145° |
| 2026-05-06 15:50 | 31.32887 | -85.40143 | 35129 ft | 513 kts | 145° |
| 2026-05-06 15:50 | 31.27502 | -85.34665 | 35130 ft | 513 kts | 145° |
| 2026-05-06 15:51 | 31.22158 | -85.29218 | 35116 ft | 513 kts | 145° |
| 2026-05-06 15:51 | 31.16784 | -85.23737 | 35093 ft | 513 kts | 145° |
| 2026-05-06 15:52 | 31.11401 | -85.18269 | 35073 ft | 513 kts | 145° |
| 2026-05-06 15:52 | 31.06008 | -85.12815 | 35079 ft | 513 kts | 145° |
| 2026-05-06 15:53 | 31.00655 | -85.07392 | 35081 ft | 513 kts | 144° |
| 2026-05-06 15:53 | 30.95266 | -85.01934 | 35082 ft | 513 kts | 144° |
| 2026-05-06 15:54 | 30.89868 | -84.96489 | 35083 ft | 513 kts | 144° |
| 2026-05-06 15:54 | 30.84464 | -84.91050 | 35075 ft | 514 kts | 144° |
| 2026-05-06 15:55 | 30.79092 | -84.85648 | 35083 ft | 514 kts | 144° |
| 2026-05-06 15:55 | 30.73682 | -84.80212 | 35083 ft | 514 kts | 144° |
| 2026-05-06 15:56 | 30.68269 | -84.74780 | 35078 ft | 514 kts | 144° |
| 2026-05-06 15:56 | 30.62853 | -84.69359 | 35073 ft | 514 kts | 144° |
| 2026-05-06 15:57 | 30.57466 | -84.63980 | 35078 ft | 514 kts | 144° |
| 2026-05-06 15:57 | 30.52037 | -84.58573 | 35083 ft | 514 kts | 144° |
| 2026-05-06 15:58 | 30.46612 | -84.53169 | 35094 ft | 514 kts | 144° |
| 2026-05-06 15:58 | 30.41178 | -84.47772 | 35101 ft | 514 kts | 144° |
| 2026-05-06 15:59 | 30.35745 | -84.42381 | 35110 ft | 514 kts | 144° |
| 2026-05-06 15:59 | 30.30353 | -84.37030 | 35108 ft | 514 kts | 144° |
| 2026-05-06 16:00 | 30.24929 | -84.31640 | 35108 ft | 514 kts | 144° |
| 2026-05-06 16:00 | 30.19500 | -84.26262 | 35103 ft | 514 kts | 144° |
| 2026-05-06 16:01 | 30.14068 | -84.20896 | 35105 ft | 514 kts | 144° |
| 2026-05-06 16:01 | 30.08670 | -84.15576 | 35107 ft | 513 kts | 144° |
| 2026-05-06 16:02 | 30.03247 | -84.10216 | 35113 ft | 513 kts | 144° |
| 2026-05-06 16:02 | 29.97823 | -84.04859 | 35119 ft | 513 kts | 144° |
| 2026-05-06 16:03 | 29.92392 | -83.99525 | 35120 ft | 513 kts | 144° |
| 2026-05-06 16:03 | 29.86956 | -83.94194 | 35115 ft | 513 kts | 144° |
| 2026-05-06 16:04 | 29.84271 | -83.91569 | 34955 ft | 513 kts | 144° |
| 2026-05-06 16:04 | 29.81446 | -83.89093 | 34717 ft | 507 kts | 153° |
| 2026-05-06 16:04 | 29.78403 | -83.87076 | 34499 ft | 505 kts | 156° |
| 2026-05-06 16:04 | 29.75340 | -83.85098 | 34272 ft | 505 kts | 156° |
| 2026-05-06 16:05 | 29.72271 | -83.83118 | 34034 ft | 506 kts | 156° |
| 2026-05-06 16:05 | 29.69202 | -83.81140 | 33771 ft | 506 kts | 156° |
| 2026-05-06 16:05 | 29.66129 | -83.79162 | 33512 ft | 507 kts | 156° |
| 2026-05-06 16:05 | 29.63053 | -83.77183 | 33252 ft | 507 kts | 156° |
| 2026-05-06 16:06 | 29.60014 | -83.75230 | 33002 ft | 507 kts | 156° |
| 2026-05-06 16:06 | 29.56932 | -83.73251 | 32746 ft | 508 kts | 156° |
| 2026-05-06 16:06 | 29.53849 | -83.71273 | 32501 ft | 508 kts | 156° |
| 2026-05-06 16:06 | 29.50752 | -83.69289 | 31616 ft | 514 kts | 156° |
| 2026-05-06 16:07 | 29.47636 | -83.67290 | 31119 ft | 510 kts | 156° |
| 2026-05-06 16:07 | 29.44548 | -83.65307 | 30527 ft | 508 kts | 156° |
| 2026-05-06 16:07 | 29.41469 | -83.63334 | 29905 ft | 506 kts | 155° |
| 2026-05-06 16:07 | 29.38408 | -83.61372 | 29310 ft | 502 kts | 155° |
| 2026-05-06 16:08 | 29.35376 | -83.59426 | 28740 ft | 497 kts | 155° |
| 2026-05-06 16:08 | 29.32411 | -83.57524 | 28166 ft | 493 kts | 155° |
| 2026-05-06 16:08 | 29.29426 | -83.55615 | 27612 ft | 489 kts | 155° |
| 2026-05-06 16:08 | 29.26462 | -83.53728 | 27048 ft | 486 kts | 155° |
| 2026-05-06 16:09 | 29.23519 | -83.51856 | 26488 ft | 482 kts | 155° |
| 2026-05-06 16:09 | 29.20597 | -83.49998 | 25936 ft | 479 kts | 155° |
| 2026-05-06 16:09 | 29.17697 | -83.48157 | 25410 ft | 475 kts | 155° |
| 2026-05-06 16:09 | 29.14818 | -83.46330 | 24870 ft | 472 kts | 154° |
| 2026-05-06 16:10 | 29.11960 | -83.44514 | 24359 ft | 468 kts | 154° |
| 2026-05-06 16:10 | 29.09164 | -83.42734 | 23858 ft | 464 kts | 154° |
| 2026-05-06 16:10 | 29.06353 | -83.40948 | 23335 ft | 460 kts | 154° |
| 2026-05-06 16:10 | 29.03579 | -83.39186 | 22850 ft | 453 kts | 154° |
| 2026-05-06 16:11 | 29.00842 | -83.37450 | 22388 ft | 446 kts | 154° |
| 2026-05-06 16:11 | 28.98148 | -83.35742 | 21933 ft | 440 kts | 154° |
| 2026-05-06 16:11 | 28.95489 | -83.34054 | 21478 ft | 435 kts | 154° |
| 2026-05-06 16:11 | 28.92862 | -83.32388 | 21022 ft | 429 kts | 154° |
| 2026-05-06 16:12 | 28.90265 | -83.30740 | 20554 ft | 425 kts | 154° |
| 2026-05-06 16:12 | 28.87692 | -83.29111 | 20085 ft | 421 kts | 153° |
| 2026-05-06 16:12 | 28.85173 | -83.27519 | 19628 ft | 418 kts | 153° |
| 2026-05-06 16:12 | 28.82638 | -83.25917 | 19152 ft | 415 kts | 153° |
| 2026-05-06 16:13 | 28.80118 | -83.24326 | 18676 ft | 413 kts | 153° |
| 2026-05-06 16:13 | 28.77610 | -83.22743 | 18130 ft | 412 kts | 153° |
| 2026-05-06 16:13 | 28.75103 | -83.21160 | 17561 ft | 411 kts | 153° |
| 2026-05-06 16:13 | 28.72616 | -83.19591 | 17084 ft | 407 kts | 153° |
| 2026-05-06 16:14 | 28.70153 | -83.18038 | 16624 ft | 403 kts | 153° |
| 2026-05-06 16:14 | 28.67710 | -83.16497 | 16159 ft | 400 kts | 152° |
| 2026-05-06 16:14 | 28.65286 | -83.14965 | 15700 ft | 397 kts | 152° |
| 2026-05-06 16:14 | 28.62910 | -83.13465 | 15246 ft | 394 kts | 152° |
| 2026-05-06 16:15 | 28.60517 | -83.11957 | 14791 ft | 392 kts | 152° |
| 2026-05-06 16:15 | 28.58138 | -83.10462 | 14377 ft | 388 kts | 152° |
| 2026-05-06 16:15 | 28.55815 | -83.09006 | 14254 ft | 373 kts | 152° |
| 2026-05-06 16:15 | 28.53619 | -83.07630 | 14083 ft | 350 kts | 152° |
| 2026-05-06 16:16 | 28.51524 | -83.06316 | 13575 ft | 340 kts | 152° |
| 2026-05-06 16:16 | 28.49476 | -83.05032 | 12934 ft | 333 kts | 152° |
| 2026-05-06 16:16 | 28.47467 | -83.03773 | 12231 ft | 326 kts | 152° |
| 2026-05-06 16:16 | 28.45532 | -83.02561 | 11661 ft | 318 kts | 152° |
| 2026-05-06 16:17 | 28.43608 | -83.01356 | 11348 ft | 315 kts | 152° |
| 2026-05-06 16:17 | 28.41692 | -83.00155 | 10958 ft | 315 kts | 151° |
| 2026-05-06 16:17 | 28.39781 | -82.98960 | 10623 ft | 312 kts | 151° |
| 2026-05-06 16:17 | 28.37887 | -82.97774 | 10293 ft | 310 kts | 151° |
| 2026-05-06 16:18 | 28.36007 | -82.96596 | 9964 ft | 307 kts | 151° |
| 2026-05-06 16:18 | 28.34144 | -82.95428 | 9609 ft | 304 kts | 151° |
| 2026-05-06 16:18 | 28.32300 | -82.94273 | 9287 ft | 301 kts | 151° |
| 2026-05-06 16:18 | 28.30478 | -82.93119 | 8962 ft | 299 kts | 148° |
| 2026-05-06 16:19 | 28.28935 | -82.91623 | 8639 ft | 295 kts | 129° |
| 2026-05-06 16:19 | 28.27879 | -82.89650 | 8322 ft | 292 kts | 110° |
| 2026-05-06 16:19 | 28.27423 | -82.87422 | 8030 ft | 290 kts | 92° |
| 2026-05-06 16:19 | 28.27456 | -82.85148 | 7725 ft | 288 kts | 87° |
| 2026-05-06 16:20 | 28.27523 | -82.82879 | 7417 ft | 287 kts | 87° |
| 2026-05-06 16:20 | 28.27583 | -82.80625 | 7118 ft | 285 kts | 88° |
| 2026-05-06 16:20 | 28.27639 | -82.78424 | 6982 ft | 274 kts | 88° |
| 2026-05-06 16:20 | 28.27690 | -82.76307 | 6834 ft | 264 kts | 88° |
| 2026-05-06 16:21 | 28.27742 | -82.74244 | 6575 ft | 260 kts | 88° |
| 2026-05-06 16:21 | 28.27795 | -82.72230 | 6275 ft | 258 kts | 88° |
| 2026-05-06 16:21 | 28.27850 | -82.70203 | 5960 ft | 257 kts | 88° |
| 2026-05-06 16:21 | 28.27925 | -82.68184 | 5632 ft | 255 kts | 87° |
| 2026-05-06 16:22 | 28.27991 | -82.66182 | 5343 ft | 253 kts | 88° |
| 2026-05-06 16:22 | 28.28031 | -82.64195 | 5056 ft | 251 kts | 89° |
| 2026-05-06 16:22 | 28.28046 | -82.62224 | 4774 ft | 249 kts | 90° |
| 2026-05-06 16:22 | 28.27798 | -82.60322 | 4522 ft | 242 kts | 114° |
| 2026-05-06 16:23 | 28.26806 | -82.58888 | 4287 ft | 232 kts | 144° |
| 2026-05-06 16:23 | 28.25436 | -82.57984 | 4059 ft | 225 kts | 153° |
| 2026-05-06 16:23 | 28.24061 | -82.57197 | 3810 ft | 218 kts | 153° |
| 2026-05-06 16:23 | 28.22719 | -82.56442 | 3568 ft | 213 kts | 154° |
| 2026-05-06 16:24 | 28.21412 | -82.55711 | 3330 ft | 206 kts | 153° |
| 2026-05-06 16:24 | 28.20158 | -82.55010 | 3122 ft | 195 kts | 154° |
| 2026-05-06 16:24 | 28.18978 | -82.54359 | 3016 ft | 185 kts | 155° |
| 2026-05-06 16:24 | 28.17758 | -82.53936 | 2970 ft | 184 kts | 168° |
| 2026-05-06 16:25 | 28.16510 | -82.53746 | 2850 ft | 183 kts | 174° |
| 2026-05-06 16:25 | 28.15233 | -82.53686 | 2716 ft | 183 kts | 176° |
| 2026-05-06 16:25 | 28.13963 | -82.53674 | 2554 ft | 182 kts | 178° |
| 2026-05-06 16:25 | 28.12693 | -82.53684 | 2406 ft | 182 kts | 180° |
| 2026-05-06 16:26 | 28.11426 | -82.53715 | 2248 ft | 182 kts | 180° |
| 2026-05-06 16:26 | 28.10158 | -82.53771 | 2058 ft | 181 kts | 182° |
| 2026-05-06 16:26 | 28.08921 | -82.53807 | 1850 ft | 175 kts | 180° |
| 2026-05-06 16:26 | 28.07721 | -82.53847 | 1628 ft | 170 kts | 180° |
| 2026-05-06 16:27 | 28.06546 | -82.53884 | 1402 ft | 165 kts | 180° |
| 2026-05-06 16:27 | 28.05474 | -82.53913 | 1259 ft | 147 kts | 178° |
| 2026-05-06 16:27 | 28.04488 | -82.53942 | 1038 ft | 143 kts | 180° |
| 2026-05-06 16:27 | 28.03495 | -82.53979 | 893 ft | 141 kts | 184° |
| 2026-05-06 16:28 | 28.02508 | -82.54022 | 708 ft | 141 kts | 181° |
| 2026-05-06 16:28 | 28.01540 | -82.54047 | 490 ft | 139 kts | 184° |
| 2026-05-06 16:28 | 28.00559 | -82.54089 | 326 ft | 142 kts | 184° |
| 2026-05-06 16:28 | 27.99583 | -82.54121 | 108 ft | 140 kts | 184° |
| 2026-05-06 16:29 | 27.98643 | -82.54154 | 33 ft | 124 kts | 184° |
| 2026-05-06 16:29 | 27.97941 | -82.54183 | 22 ft | 76 kts | 182° |
| 2026-05-06 16:29 | 27.97562 | -82.54195 | 20 ft | 34 kts | 180° |
| 2026-05-06 16:29 | 27.97413 | -82.54130 | 26 ft | 11 kts | 123° |
| 2026-05-06 16:30 | 27.97434 | -82.54085 | 23 ft | 6 kts | 36° |
| 2026-05-06 16:30 | 27.97462 | -82.54074 | 23 ft | 7 kts | 9° |
| 2026-05-06 16:30 | 27.97516 | -82.54068 | 22 ft | 6 kts | 0° |
| 2026-05-06 16:30 | 27.97614 | -82.54067 | 20 ft | 21 kts | 1° |
| 2026-05-06 16:31 | 27.97762 | -82.54061 | 21 ft | 21 kts | 2° |
| 2026-05-06 16:31 | 27.97903 | -82.54059 | 22 ft | 20 kts | 1° |
| 2026-05-06 16:31 | 27.98010 | -82.54040 | 23 ft | 12 kts | 39° |
| 2026-05-06 16:31 | 27.98057 | -82.53983 | 28 ft | 8 kts | 34° |
| 2026-05-06 16:32 | 27.98094 | -82.53969 | 27 ft | 4 kts | 5° |
| 2026-05-06 16:32 | 27.98124 | -82.53967 | 27 ft | 5 kts | 4° |
| 2026-05-06 16:32 | 27.98139 | -82.53953 | 27 ft | 2 kts | 58° |
| 2026-05-06 16:32 | 27.98134 | -82.53933 | 27 ft | 4 kts | 114° |
| 2026-05-06 16:33 | 27.98125 | -82.53913 | 28 ft | 2 kts | 120° |
| 2026-05-06 16:33 | 27.98111 | -82.53891 | 28 ft | 3 kts | 127° |
| 2026-05-06 16:33 | 27.98104 | -82.53882 | 28 ft | 0 kts | 129° |